Time;durP1;ratioP1;P1;durP2;ratioP2;P2;SDS_P1;SDS_P2;PMS_P1;PMS_P2;Temp;Humidity;BMP_temperature;BMP_pressure;BME280_temperature;BME280_humidity;BME280_pressure;Samples;Min_cycle;Max_cycle;Signal;HPM_P1;HPM_P2
2022/11/03 00:00:24;;;;;;;;;;;5.90;99.90;;;;;;5081502;28;19924;-84
2022/11/03 00:02:50;;;;;;;;;;;5.90;99.90;;;;;;5082799;28;19919;-84
2022/11/03 00:08:02;;;;;;;;;;;5.90;99.90;;;;;;5081409;28;19919;-84
2022/11/03 00:10:27;;;;;;;;;;;6.00;99.90;;;;;;5081522;28;20192;-84
2022/11/03 00:12:53;;;;;;;;;;;6.00;99.90;;;;;;5081534;28;19916;-84
2022/11/03 00:15:19;;;;;;;;;;;5.90;99.90;;;;;;5081249;28;19921;-84
2022/11/03 00:17:47;;;;;;;;;;;6.00;99.90;;;;;;5082200;28;20168;-84
2022/11/03 00:20:13;;;;;;;;;;;6.00;99.90;;;;;;5064746;28;19909;-84
2022/11/03 00:22:39;;;;;;;;;;;6.00;99.90;;;;;;5064504;28;19939;-84
2022/11/03 00:25:05;;;;;;;;;;;5.90;99.90;;;;;;5081484;28;19916;-84
2022/11/03 00:27:30;;;;;;;;;;;5.90;99.90;;;;;;5064364;28;19912;-84
2022/11/03 00:29:56;;;;;;;;;;;5.80;99.90;;;;;;5081383;28;19916;-83
2022/11/03 00:32:22;;;;;;;;;;;5.80;99.90;;;;;;5081192;28;19914;-83
2022/11/03 00:34:47;;;;;;;;;;;5.80;99.90;;;;;;5081289;28;19958;-83
2022/11/03 00:37:13;;;;;;;;;;;5.70;99.90;;;;;;5083614;28;19917;-82
2022/11/03 00:39:39;;;;;;;;;;;5.60;99.90;;;;;;5084014;28;19988;-82
2022/11/03 00:42:04;;;;;;;;;;;5.60;99.90;;;;;;5085373;28;19916;-81
2022/11/03 00:44:30;;;;;;;;;;;5.60;99.90;;;;;;5084768;28;19908;-81
2022/11/03 00:46:55;;;;;;;;;;;5.60;99.90;;;;;;5082663;28;20010;-82
2022/11/03 00:49:21;;;;;;;;;;;5.60;99.90;;;;;;5083554;28;20199;-81
2022/11/03 00:51:47;;;;;;;;;;;5.60;99.90;;;;;;5083470;28;20115;-81
2022/11/03 00:54:12;;;;;;;;;;;5.70;99.90;;;;;;5083709;28;20131;-81
2022/11/03 00:56:39;;;;;;;;;;;5.70;99.90;;;;;;5082110;28;19913;-80
2022/11/03 00:59:06;;;;;;;;;;;5.70;99.90;;;;;;5082078;28;19912;-83
2022/11/03 01:01:36;;;;;;;;;;;5.80;99.90;;;;;;5064156;28;19908;-83
2022/11/03 01:06:50;;;;;;;;;;;5.80;99.90;;;;;;5082462;28;19916;-83
2022/11/03 01:09:30;;;;;;;;;;;5.90;99.90;;;;;;5084657;28;19908;-82
2022/11/03 01:12:09;;;;;;;;;;;5.90;99.90;;;;;;5084610;28;19967;-82
2022/11/03 01:14:40;;;;;;;;;;;6.00;99.90;;;;;;5084706;28;19922;-83
2022/11/03 01:17:07;;;;;;;;;;;6.00;99.90;;;;;;5084095;28;20408;-83
2022/11/03 01:19:32;;;;;;;;;;;6.00;99.90;;;;;;5084864;28;19908;-84
2022/11/03 01:21:58;;;;;;;;;;;6.00;99.90;;;;;;5085600;28;19954;-84
2022/11/03 01:24:24;;;;;;;;;;;6.00;99.90;;;;;;5084404;28;19952;-83
2022/11/03 01:26:49;;;;;;;;;;;6.00;99.90;;;;;;5083878;28;19950;-83
2022/11/03 01:29:15;;;;;;;;;;;5.90;99.90;;;;;;5084200;28;19915;-83
2022/11/03 01:31:41;;;;;;;;;;;5.80;99.90;;;;;;5085039;28;19908;-83
2022/11/03 01:34:11;;;;;;;;;;;5.80;99.90;;;;;;5084188;28;19909;-82
2022/11/03 01:36:36;;;;;;;;;;;5.70;99.90;;;;;;5083692;28;19925;-84
2022/11/03 01:39:02;;;;;;;;;;;5.80;99.90;;;;;;5083957;28;19975;-84
2022/11/03 01:41:28;;;;;;;;;;;5.70;99.90;;;;;;5085038;28;19931;-83
2022/11/03 01:44:05;;;;;;;;;;;5.70;99.90;;;;;;5083944;28;19975;-83
2022/11/03 01:46:31;;;;;;;;;;;5.70;99.90;;;;;;5083385;28;19916;-83
2022/11/03 01:48:59;;;;;;;;;;;5.60;99.90;;;;;;5083876;28;19909;-85
2022/11/03 01:51:25;;;;;;;;;;;5.60;99.90;;;;;;5084013;28;19908;-84
2022/11/03 01:53:51;;;;;;;;;;;5.60;99.90;;;;;;5084518;28;20019;-82
2022/11/03 01:56:17;;;;;;;;;;;5.60;99.90;;;;;;5085309;28;19920;-82
2022/11/03 01:58:44;;;;;;;;;;;5.60;99.90;;;;;;5085435;28;19914;-81
2022/11/03 02:01:09;;;;;;;;;;;5.60;99.90;;;;;;5085014;28;19962;-81
2022/11/03 02:03:37;;;;;;;;;;;5.60;99.90;;;;;;5084428;28;19916;-83
2022/11/03 02:06:03;;;;;;;;;;;5.60;99.90;;;;;;5066694;28;19943;-82
2022/11/03 02:08:48;;;;;;;;;;;5.60;99.90;;;;;;5083432;28;19962;-83
2022/11/03 02:13:58;;;;;;;;;;;5.60;99.90;;;;;;5083764;28;19954;-83
2022/11/03 02:16:24;;;;;;;;;;;5.50;99.90;;;;;;5082911;28;20218;-83
2022/11/03 02:18:50;;;;;;;;;;;5.50;99.90;;;;;;5082364;28;19991;-84
2022/11/03 02:21:25;;;;;;;;;;;5.50;99.90;;;;;;5083392;28;19912;-84
2022/11/03 02:24:41;;;;;;;;;;;5.40;99.90;;;;;;5083285;28;19915;-84
2022/11/03 02:27:07;;;;;;;;;;;5.40;99.90;;;;;;5038910;28;19954;-83
2022/11/03 02:29:32;;;;;;;;;;;5.30;99.90;;;;;;5066608;28;20218;-83
2022/11/03 02:32:21;;;;;;;;;;;5.20;99.90;;;;;;5082831;28;19986;-84
2022/11/03 02:34:49;;;;;;;;;;;5.20;99.90;;;;;;5065931;28;19974;-83
2022/11/03 02:37:16;;;;;;;;;;;5.20;99.90;;;;;;5083227;28;20203;-82
2022/11/03 02:39:46;;;;;;;;;;;5.20;99.90;;;;;;5067613;28;20208;-82
2022/11/03 02:42:12;;;;;;;;;;;5.20;99.90;;;;;;5084023;28;19983;-82
2022/11/03 02:44:38;;;;;;;;;;;5.20;99.90;;;;;;5084515;28;20041;-82
2022/11/03 02:47:06;;;;;;;;;;;5.10;99.90;;;;;;5083099;28;20233;-82
2022/11/03 02:49:36;;;;;;;;;;;5.20;99.90;;;;;;5082783;28;19908;-83
2022/11/03 02:52:03;;;;;;;;;;;5.20;99.90;;;;;;5066675;28;19979;-83
2022/11/03 02:54:33;;;;;;;;;;;5.20;99.90;;;;;;5066111;28;19916;-83
2022/11/03 02:57:05;;;;;;;;;;;5.30;99.90;;;;;;5082036;28;19921;-82
2022/11/03 02:59:37;;;;;;;;;;;5.30;99.90;;;;;;5065857;28;20145;-83
2022/11/03 03:02:08;;;;;;;;;;;5.30;99.90;;;;;;5082336;28;19916;-83
2022/11/03 03:04:36;;;;;;;;;;;5.30;99.90;;;;;;5082240;28;19916;-83
2022/11/03 03:07:05;;;;;;;;;;;5.20;99.90;;;;;;5082105;28;20181;-83
2022/11/03 03:09:34;;;;;;;;;;;5.20;99.90;;;;;;5082964;28;19962;-82
2022/11/03 03:12:00;;;;;;;;;;;5.20;99.90;;;;;;5066441;28;20156;-83
2022/11/03 03:14:31;;;;;;;;;;;5.10;99.90;;;;;;5065791;28;19915;-82
2022/11/03 03:17:00;;;;;;;;;;;5.10;99.90;;;;;;5082261;28;19912;-82
2022/11/03 03:19:52;;;;;;;;;;;5.10;99.90;;;;;;5066114;28;19908;-82
2022/11/03 03:22:27;;;;;;;;;;;5.10;99.90;;;;;;5082997;28;19909;-82
2022/11/03 03:25:09;;;;;;;;;;;5.20;99.90;;;;;;5065812;28;19908;-83
2022/11/03 03:27:35;;;;;;;;;;;5.20;99.90;;;;;;5081844;28;19917;-84
2022/11/03 03:30:05;;;;;;;;;;;5.20;99.90;;;;;;5065182;28;20114;-84
2022/11/03 03:32:34;;;;;;;;;;;5.20;99.90;;;;;;5066190;28;20253;-83
2022/11/03 03:35:00;;;;;;;;;;;5.30;99.90;;;;;;5088226;28;19908;-83
2022/11/03 03:37:25;;;;;;;;;;;5.30;99.90;;;;;;5093813;28;19912;-83
2022/11/03 03:39:52;;;;;;;;;;;5.30;99.90;;;;;;5094463;28;19903;-83
2022/11/03 03:42:17;;;;;;;;;;;5.30;99.90;;;;;;5078345;28;19915;-83
2022/11/03 03:44:43;;;;;;;;;;;5.20;99.90;;;;;;5093169;28;19913;-82
2022/11/03 03:47:16;;;;;;;;;;;5.20;99.90;;;;;;5086710;28;19917;-81
2022/11/03 03:49:42;;;;;;;;;;;5.10;99.90;;;;;;5083954;28;19938;-82
2022/11/03 03:52:08;;;;;;;;;;;5.00;99.90;;;;;;5085155;28;19908;-83
2022/11/03 03:54:34;;;;;;;;;;;4.90;99.90;;;;;;5082910;28;19912;-84
2022/11/03 03:57:01;;;;;;;;;;;4.90;99.90;;;;;;5081849;28;19963;-83
2022/11/03 03:59:27;;;;;;;;;;;4.90;99.90;;;;;;5083415;28;19916;-83
2022/11/03 04:01:53;;;;;;;;;;;4.90;99.90;;;;;;5082054;28;19908;-83
2022/11/03 04:04:18;;;;;;;;;;;4.90;99.90;;;;;;5081160;28;19917;-83
2022/11/03 04:06:44;;;;;;;;;;;4.90;99.90;;;;;;5064754;28;19916;-83
2022/11/03 04:09:10;;;;;;;;;;;4.90;99.90;;;;;;5081963;28;20119;-83
2022/11/03 04:22:32;;;;;;;;;;;4.90;99.90;;;;;;5075933;28;19916;-83
2022/11/03 04:24:58;;;;;;;;;;;4.90;99.90;;;;;;5078160;28;19909;-84
2022/11/03 04:27:34;;;;;;;;;;;4.80;99.90;;;;;;5061175;28;19955;-83
2022/11/03 04:30:15;;;;;;;;;;;4.70;99.90;;;;;;5078257;28;19916;-84
2022/11/03 04:32:41;;;;;;;;;;;4.70;99.90;;;;;;5077619;28;20107;-84
2022/11/03 04:35:26;;;;;;;;;;;4.80;99.90;;;;;;5078054;28;19988;-84
2022/11/03 04:38:15;;;;;;;;;;;4.70;99.90;;;;;;5060875;28;19912;-83
2022/11/03 04:40:43;;;;;;;;;;;4.70;99.90;;;;;;5059305;28;19909;-84
2022/11/03 04:43:12;;;;;;;;;;;4.70;99.90;;;;;;5063803;28;19920;-83
2022/11/03 04:45:38;;;;;;;;;;;4.70;99.90;;;;;;5081667;28;20279;-83
2022/11/03 04:48:23;;;;;;;;;;;4.70;99.90;;;;;;5088658;28;19916;-84
2022/11/03 04:50:51;;;;;;;;;;;4.70;99.90;;;;;;5068456;28;20151;-83
2022/11/03 04:53:17;;;;;;;;;;;4.70;99.90;;;;;;5068710;28;19920;-84
2022/11/03 04:55:44;;;;;;;;;;;4.70;99.90;;;;;;5068381;28;19983;-84
2022/11/03 04:58:25;;;;;;;;;;;4.60;99.90;;;;;;5068082;28;20212;-85
2022/11/03 05:00:55;;;;;;;;;;;4.60;99.90;;;;;;5052016;28;19908;-85
2022/11/03 05:03:22;;;;;;;;;;;4.60;99.90;;;;;;5067954;28;19953;-83
2022/11/03 05:05:48;;;;;;;;;;;4.60;99.90;;;;;;5068086;28;19915;-84
2022/11/03 05:08:15;;;;;;;;;;;4.50;99.90;;;;;;5067602;28;19916;-83
2022/11/03 05:10:41;;;;;;;;;;;4.50;99.90;;;;;;5067936;28;19908;-84
2022/11/03 05:13:15;;;;;;;;;;;4.50;99.90;;;;;;5085665;28;19908;-83
2022/11/03 05:15:42;;;;;;;;;;;4.50;99.90;;;;;;5068931;28;20154;-85
2022/11/03 05:18:25;;;;;;;;;;;4.50;99.90;;;;;;5064116;28;20108;-85
2022/11/03 05:21:02;;;;;;;;;;;4.60;99.90;;;;;;5064640;28;20177;-83
2022/11/03 05:23:30;;;;;;;;;;;4.70;99.90;;;;;;5064478;28;20225;-83
2022/11/03 05:25:56;;;;;;;;;;;4.70;99.90;;;;;;5064344;28;19909;-83
2022/11/03 05:28:27;;;;;;;;;;;4.80;99.90;;;;;;5064134;28;19940;-84
2022/11/03 05:30:53;;;;;;;;;;;4.80;99.90;;;;;;5084833;28;19936;-85
2022/11/03 05:33:30;;;;;;;;;;;4.80;99.90;;;;;;5084476;28;19962;-82
2022/11/03 05:35:58;;;;;;;;;;;4.80;99.90;;;;;;5077512;28;19912;-82
2022/11/03 05:38:24;;;;;;;;;;;4.80;99.90;;;;;;5084452;28;19920;-82
2022/11/03 05:40:51;;;;;;;;;;;4.80;99.90;;;;;;5085321;28;19946;-82
2022/11/03 05:43:17;;;;;;;;;;;4.80;99.90;;;;;;5086759;28;19908;-84
2022/11/03 05:45:42;;;;;;;;;;;4.70;99.90;;;;;;5085944;28;20265;-82
2022/11/03 05:48:23;;;;;;;;;;;4.60;99.90;;;;;;5079131;28;20139;-83
2022/11/03 05:50:49;;;;;;;;;;;4.60;99.90;;;;;;5094040;28;19927;-82
2022/11/03 05:53:31;;;;;;;;;;;4.60;99.90;;;;;;5077119;28;19968;-81
2022/11/03 05:56:01;;;;;;;;;;;4.70;99.90;;;;;;5065566;28;20226;-81
2022/11/03 05:58:32;;;;;;;;;;;4.70;99.90;;;;;;5054980;28;20210;-81
2022/11/03 06:00:59;;;;;;;;;;;4.70;99.90;;;;;;5060860;28;19912;-84
2022/11/03 06:03:28;;;;;;;;;;;4.60;99.90;;;;;;5071079;28;19917;-82
2022/11/03 06:05:54;;;;;;;;;;;4.60;99.90;;;;;;5072571;28;19927;-82
2022/11/03 06:08:22;;;;;;;;;;;4.60;99.90;;;;;;5083898;28;19912;-78
2022/11/03 06:10:53;;;;;;;;;;;4.60;99.90;;;;;;5078548;28;19928;-82
2022/11/03 06:13:23;;;;;;;;;;;4.70;99.90;;;;;;5083930;28;19912;-83
2022/11/03 06:15:55;;;;;;;;;;;4.60;99.90;;;;;;5075494;28;19928;-82
2022/11/03 06:18:21;;;;;;;;;;;4.70;99.90;;;;;;5081641;28;19921;-82
2022/11/03 06:20:53;;;;;;;;;;;4.70;99.90;;;;;;5079970;28;20170;-81
2022/11/03 06:23:19;;;;;;;;;;;4.70;99.90;;;;;;5059106;28;19920;-83
2022/11/03 06:25:45;;;;;;;;;;;4.80;99.90;;;;;;5078039;28;19984;-83
2022/11/03 06:28:18;;;;;;;;;;;4.80;99.90;;;;;;5081845;28;19912;-84
2022/11/03 06:30:43;;;;;;;;;;;4.90;99.90;;;;;;5061068;28;20177;-84
2022/11/03 06:33:13;;;;;;;;;;;5.00;99.90;;;;;;5072375;28;19928;-85
2022/11/03 06:35:39;;;;;;;;;;;5.00;99.90;;;;;;5049668;28;19946;-85
2022/11/03 06:38:12;;;;;;;;;;;5.00;99.90;;;;;;5082859;28;20203;-86
2022/11/03 06:40:38;;;;;;;;;;;5.00;99.90;;;;;;5083065;28;19975;-84
2022/11/03 06:43:21;;;;;;;;;;;5.00;99.90;;;;;;5083056;28;19920;-83
2022/11/03 06:45:54;;;;;;;;;;;5.10;99.90;;;;;;5066296;28;19908;-83
2022/11/03 06:48:25;;;;;;;;;;;5.10;99.90;;;;;;5060343;28;20108;-83
2022/11/03 06:50:51;;;;;;;;;;;5.10;99.90;;;;;;5046520;28;19909;-83
2022/11/03 06:53:19;;;;;;;;;;;5.10;99.90;;;;;;5029354;28;19976;-84
2022/11/03 06:55:46;;;;;;;;;;;5.20;99.90;;;;;;5062572;28;19912;-84
2022/11/03 06:58:32;;;;;;;;;;;5.20;99.90;;;;;;5062646;28;20226;-82
2022/11/03 07:01:00;;;;;;;;;;;5.20;99.90;;;;;;5046302;28;19916;-83
2022/11/03 07:03:32;;;;;;;;;;;5.30;99.90;;;;;;5045987;28;19915;-83
2022/11/03 07:06:09;;;;;;;;;;;5.20;99.90;;;;;;5063007;28;19909;-83
2022/11/03 07:08:38;;;;;;;;;;;5.30;99.90;;;;;;5063471;28;19909;-81
2022/11/03 07:11:09;;;;;;;;;;;5.30;99.90;;;;;;5049693;28;19913;-84
2022/11/03 07:13:34;;;;;;;;;;;5.30;99.90;;;;;;5062754;28;19917;-83
2022/11/03 07:16:00;;;;;;;;;;;5.40;99.90;;;;;;5045849;28;19913;-84
2022/11/03 07:18:28;;;;;;;;;;;5.50;99.90;;;;;;5035261;28;19944;-82
2022/11/03 07:20:54;;;;;;;;;;;5.60;99.90;;;;;;5062408;28;19920;-83
2022/11/03 07:23:24;;;;;;;;;;;5.60;99.90;;;;;;5063346;28;19909;-84
2022/11/03 07:25:56;;;;;;;;;;;5.60;99.90;;;;;;5062942;28;19912;-83
2022/11/03 07:28:24;;;;;;;;;;;5.70;99.90;;;;;;5045449;28;19916;-79
2022/11/03 07:30:49;;;;;;;;;;;5.80;99.90;;;;;;5045606;28;19917;-88
2022/11/03 07:33:19;;;;;;;;;;;5.80;99.90;;;;;;5045140;28;19908;-87
2022/11/03 07:35:44;;;;;;;;;;;5.80;99.90;;;;;;5045457;28;19959;-88
2022/11/03 07:38:12;;;;;;;;;;;6.00;99.90;;;;;;5044980;28;20218;-86
2022/11/03 07:40:38;;;;;;;;;;;6.10;99.90;;;;;;5045655;28;19916;-87
2022/11/03 07:43:21;;;;;;;;;;;6.10;99.90;;;;;;5045235;28;19944;-86
2022/11/03 07:45:47;;;;;;;;;;;6.20;99.90;;;;;;5045601;28;19916;-85
2022/11/03 07:48:25;;;;;;;;;;;6.20;99.90;;;;;;5071297;28;19909;-84
2022/11/03 07:50:55;;;;;;;;;;;6.30;99.90;;;;;;5065735;28;19909;-81
2022/11/03 07:53:23;;;;;;;;;;;6.40;99.90;;;;;;5082567;28;19908;-80
2022/11/03 07:55:49;;;;;;;;;;;6.60;99.90;;;;;;5081910;28;19999;-82
2022/11/03 07:58:21;;;;;;;;;;;6.60;99.90;;;;;;5082441;28;19909;-80
2022/11/03 08:00:46;;;;;;;;;;;6.80;99.90;;;;;;5060623;28;19916;-75
2022/11/03 08:03:40;;;;;;;;;;;6.90;99.90;;;;;;5068975;28;20110;-77
2022/11/03 08:06:05;;;;;;;;;;;7.00;99.90;;;;;;5062113;28;19908;-77
2022/11/03 08:08:31;;;;;;;;;;;7.10;99.90;;;;;;5044517;28;20242;-76
2022/11/03 08:10:57;;;;;;;;;;;7.20;99.90;;;;;;5062662;28;20108;-75
2022/11/03 08:13:22;;;;;;;;;;;7.30;99.90;;;;;;5062462;28;19931;-78
2022/11/03 08:15:48;;;;;;;;;;;7.40;99.90;;;;;;5061182;28;19943;-79
2022/11/03 08:18:14;;;;;;;;;;;7.50;99.90;;;;;;5073006;28;19917;-75
2022/11/03 08:20:39;;;;;;;;;;;7.70;99.90;;;;;;5086664;28;19948;-77
2022/11/03 08:23:05;;;;;;;;;;;7.80;99.90;;;;;;5085166;28;19908;-77
2022/11/03 08:25:30;;;;;;;;;;;7.80;99.90;;;;;;5086494;28;19916;-77
2022/11/03 08:27:56;;;;;;;;;;;8.00;99.90;;;;;;5085938;28;19916;-75
2022/11/03 08:30:22;;;;;;;;;;;8.10;99.90;;;;;;5084755;28;20018;-76
2022/11/03 08:32:47;;;;;;;;;;;8.20;99.90;;;;;;5085025;28;20111;-76
2022/11/03 08:35:13;;;;;;;;;;;8.40;99.90;;;;;;5085721;28;20115;-78
2022/11/03 08:37:39;;;;;;;;;;;8.50;99.90;;;;;;5085459;28;19924;-77
2022/11/03 08:40:05;;;;;;;;;;;8.60;99.90;;;;;;5086046;28;19983;-79
2022/11/03 08:42:31;;;;;;;;;;;8.70;99.90;;;;;;5084691;28;19915;-75
2022/11/03 08:44:58;;;;;;;;;;;8.90;99.90;;;;;;5084662;28;19908;-74
2022/11/03 08:47:23;;;;;;;;;;;8.90;99.90;;;;;;5084286;28;19915;-79
2022/11/03 08:49:49;;;;;;;;;;;8.90;99.90;;;;;;5068639;28;19917;-81
2022/11/03 08:52:15;;;;;;;;;;;8.90;99.90;;;;;;5068522;28;20107;-83
2022/11/03 08:54:43;;;;;;;;;;;9.00;99.90;;;;;;5068587;28;19975;-82
2022/11/03 08:57:11;;;;;;;;;;;9.10;99.90;;;;;;5068009;28;19925;-82
2022/11/03 08:59:37;;;;;;;;;;;9.10;99.90;;;;;;5084468;28;19908;-83
2022/11/03 09:02:03;;;;;;;;;;;9.20;99.90;;;;;;5063889;28;19916;-83
2022/11/03 09:04:29;;;;;;;;;;;9.30;99.90;;;;;;5080811;28;19936;-82
2022/11/03 09:06:54;;;;;;;;;;;9.50;99.90;;;;;;5063983;28;19917;-83
2022/11/03 09:09:20;;;;;;;;;;;9.50;99.90;;;;;;5081370;28;19987;-83
2022/11/03 09:11:46;;;;;;;;;;;9.60;99.90;;;;;;5063939;28;19915;-83
2022/11/03 09:14:12;;;;;;;;;;;9.70;99.90;;;;;;5081319;28;19958;-82
2022/11/03 09:16:38;;;;;;;;;;;9.70;99.90;;;;;;5065053;28;19921;-83
2022/11/03 09:19:04;;;;;;;;;;;9.80;99.90;;;;;;5096571;28;19982;-82
2022/11/03 09:21:29;;;;;;;;;;;9.80;99.90;;;;;;5084585;28;19908;-81
2022/11/03 09:23:58;;;;;;;;;;;9.90;99.90;;;;;;5086292;28;20182;-81
2022/11/03 09:26:24;;;;;;;;;;;10.00;99.90;;;;;;5085806;28;19983;-81
2022/11/03 09:28:50;;;;;;;;;;;10.10;99.90;;;;;;5084489;28;19958;-81
2022/11/03 09:31:16;;;;;;;;;;;10.30;99.90;;;;;;5100372;28;19934;-81
2022/11/03 09:33:41;;;;;;;;;;;10.40;99.90;;;;;;5084066;28;19908;-82
2022/11/03 09:36:07;;;;;;;;;;;10.60;99.90;;;;;;5084839;28;19920;-82
2022/11/03 09:38:33;;;;;;;;;;;10.70;99.90;;;;;;5067646;28;19931;-85
2022/11/03 09:40:58;;;;;;;;;;;10.90;99.90;;;;;;5086197;28;19975;-83
2022/11/03 09:43:24;;;;;;;;;;;11.00;99.90;;;;;;5084721;28;19924;-82
2022/11/03 09:45:50;;;;;;;;;;;11.20;99.90;;;;;;5084757;28;19919;-83
2022/11/03 09:48:15;;;;;;;;;;;11.30;99.90;;;;;;5080310;28;19917;-83
2022/11/03 09:50:41;;;;;;;;;;;11.40;99.90;;;;;;5063824;28;20019;-81
2022/11/03 09:53:10;;;;;;;;;;;11.60;99.90;;;;;;5063884;28;19944;-83
2022/11/03 09:55:36;;;;;;;;;;;11.70;99.90;;;;;;5067016;28;19912;-82
2022/11/03 09:58:16;;;;;;;;;;;11.80;99.90;;;;;;5089500;28;20106;-81
2022/11/03 10:00:42;;;;;;;;;;;11.90;99.90;;;;;;5064904;28;19958;-82
2022/11/03 10:03:11;;;;;;;;;;;12.20;99.90;;;;;;5063505;28;20226;-82
2022/11/03 10:05:37;;;;;;;;;;;12.30;99.90;;;;;;5047870;28;19908;-84
2022/11/03 10:08:05;;;;;;;;;;;12.40;99.90;;;;;;5063912;28;19909;-83
2022/11/03 10:10:31;;;;;;;;;;;12.60;99.90;;;;;;5047652;28;19954;-83
2022/11/03 10:12:57;;;;;;;;;;;12.80;99.90;;;;;;5047404;28;19936;-82
2022/11/03 10:15:22;;;;;;;;;;;13.00;99.90;;;;;;5064100;28;19908;-83
2022/11/03 10:17:49;;;;;;;;;;;13.20;99.90;;;;;;5068669;28;20238;-83
2022/11/03 10:20:16;;;;;;;;;;;13.30;99.90;;;;;;5084866;28;20153;-83
2022/11/03 10:22:42;;;;;;;;;;;13.40;99.90;;;;;;5083818;28;19909;-83
2022/11/03 10:25:24;;;;;;;;;;;13.60;99.90;;;;;;5080047;28;19926;-83
2022/11/03 10:27:50;;;;;;;;;;;13.90;99.90;;;;;;5084593;28;19966;-84
2022/11/03 10:30:16;;;;;;;;;;;14.30;99.90;;;;;;5085256;28;19909;-83
2022/11/03 10:32:41;;;;;;;;;;;14.50;99.90;;;;;;5084041;28;20218;-83
2022/11/03 10:35:43;;;;;;;;;;;14.80;99.90;;;;;;5083558;28;19909;-83
2022/11/03 10:38:30;;;;;;;;;;;15.20;99.90;;;;;;5062246;28;19917;-84
2022/11/03 10:41:15;;;;;;;;;;;15.60;99.90;;;;;;5078597;28;19916;-84
2022/11/03 10:43:57;;;;;;;;;;;15.80;99.90;;;;;;5070509;28;19909;-84
2022/11/03 10:46:23;;;;;;;;;;;16.10;99.90;;;;;;5093395;28;19919;-83
2022/11/03 10:49:01;;;;;;;;;;;16.40;99.90;;;;;;5093566;28;19908;-84
2022/11/03 10:51:28;;;;;;;;;;;16.70;99.90;;;;;;5093471;28;20159;-84
2022/11/03 10:53:54;;;;;;;;;;;16.80;99.90;;;;;;5083602;28;20088;-84
2022/11/03 10:56:20;;;;;;;;;;;16.90;99.90;;;;;;5083204;28;20211;-84
2022/11/03 10:58:45;;;;;;;;;;;17.00;99.90;;;;;;5083853;28;19957;-84
2022/11/03 11:01:11;;;;;;;;;;;17.10;99.90;;;;;;5083642;28;19909;-84
2022/11/03 11:03:43;;;;;;;;;;;17.00;99.90;;;;;;5082925;28;20039;-84
2022/11/03 11:06:20;;;;;;;;;;;16.80;99.90;;;;;;5083076;28;20203;-84
2022/11/03 11:08:49;;;;;;;;;;;16.60;99.90;;;;;;5083423;28;19914;-84
2022/11/03 11:11:16;;;;;;;;;;;16.30;99.90;;;;;;5083168;28;19916;-84
2022/11/03 11:13:41;;;;;;;;;;;16.00;99.90;;;;;;5083075;28;19908;-84
2022/11/03 11:16:46;;;;;;;;;;;15.90;99.90;;;;;;5082446;28;20037;-83
2022/11/03 11:19:11;;;;;;;;;;;15.90;99.90;;;;;;5083925;28;19970;-84
2022/11/03 11:21:37;;;;;;;;;;;15.80;99.90;;;;;;5082980;28;20215;-84
2022/11/03 11:24:03;;;;;;;;;;;15.70;99.90;;;;;;5084131;28;19953;-84
2022/11/03 11:26:30;;;;;;;;;;;15.70;99.90;;;;;;5082883;28;19908;-84
2022/11/03 11:29:08;;;;;;;;;;;15.60;99.90;;;;;;5066286;28;19916;-84
2022/11/03 11:31:34;;;;;;;;;;;15.50;99.90;;;;;;5083508;28;20043;-84
2022/11/03 11:34:09;;;;;;;;;;;15.50;99.90;;;;;;5082139;28;20270;-84
2022/11/03 11:36:39;;;;;;;;;;;15.50;99.90;;;;;;5082019;28;19919;-84
2022/11/03 11:39:23;;;;;;;;;;;15.60;99.90;;;;;;5065454;28;20106;-84
2022/11/03 11:42:08;;;;;;;;;;;15.60;99.90;;;;;;5082272;28;19916;-83
2022/11/03 11:44:44;;;;;;;;;;;15.70;99.90;;;;;;5083580;28;19908;-83
2022/11/03 11:47:39;;;;;;;;;;;15.80;99.90;;;;;;5081881;28;19915;-83
2022/11/03 11:50:10;;;;;;;;;;;15.90;99.90;;;;;;5080972;28;19962;-84
2022/11/03 11:52:59;;;;;;;;;;;16.10;99.90;;;;;;5082361;28;20161;-84
2022/11/03 11:55:33;;;;;;;;;;;16.20;99.90;;;;;;5082423;28;20210;-83
2022/11/03 11:58:00;;;;;;;;;;;16.20;99.90;;;;;;5083321;28;19916;-84
2022/11/03 12:00:28;;;;;;;;;;;16.20;99.90;;;;;;5082317;28;20203;-83
2022/11/03 12:02:54;;;;;;;;;;;16.10;99.90;;;;;;5065121;28;19951;-84
2022/11/03 12:05:21;;;;;;;;;;;16.00;99.90;;;;;;5047631;28;19920;-83
2022/11/03 12:07:47;;;;;;;;;;;16.00;99.90;;;;;;5061527;28;20150;-84
2022/11/03 12:10:17;;;;;;;;;;;16.00;99.90;;;;;;5062929;28;19915;-84
2022/11/03 12:12:43;;;;;;;;;;;16.00;99.90;;;;;;5052934;28;19909;-84
2022/11/03 12:15:46;;;;;;;;;;;16.20;99.90;;;;;;5082307;28;20337;-84
2022/11/03 12:18:30;;;;;;;;;;;16.30;99.90;;;;;;5082679;28;19920;-84
2022/11/03 12:20:55;;;;;;;;;;;16.50;99.90;;;;;;5081741;28;19922;-84
2022/11/03 12:23:51;;;;;;;;;;;16.80;99.90;;;;;;5081637;28;19944;-83
2022/11/03 12:26:18;;;;;;;;;;;16.90;99.90;;;;;;5069115;28;19908;-84
2022/11/03 12:28:43;;;;;;;;;;;17.10;99.90;;;;;;5081630;28;19916;-84
2022/11/03 12:31:09;;;;;;;;;;;17.20;99.90;;;;;;5081568;28;19916;-84
2022/11/03 12:33:35;;;;;;;;;;;17.40;99.90;;;;;;5081358;28;19909;-83
2022/11/03 12:36:00;;;;;;;;;;;17.40;99.90;;;;;;5082352;28;20230;-83
2022/11/03 12:38:26;;;;;;;;;;;17.50;99.90;;;;;;5082504;28;20195;-84
2022/11/03 12:40:55;;;;;;;;;;;17.40;99.90;;;;;;5081376;28;19916;-84
2022/11/03 12:43:20;;;;;;;;;;;17.20;99.90;;;;;;5081347;28;19910;-84
2022/11/03 12:45:46;;;;;;;;;;;17.00;99.90;;;;;;5081543;28;20080;-84
2022/11/03 12:48:14;;;;;;;;;;;16.80;99.90;;;;;;5080686;28;20994;-84
2022/11/03 12:50:40;;;;;;;;;;;16.50;99.90;;;;;;5081742;28;19908;-84
2022/11/03 12:53:06;;;;;;;;;;;16.20;99.90;;;;;;5082006;28;19912;-84
2022/11/03 12:55:33;;;;;;;;;;;16.00;99.90;;;;;;5064371;28;19908;-83
2022/11/03 12:57:58;;;;;;;;;;;15.90;99.90;;;;;;5080952;28;19915;-83
2022/11/03 13:00:24;;;;;;;;;;;15.80;99.90;;;;;;5081717;28;19916;-84
2022/11/03 13:02:50;;;;;;;;;;;15.90;99.90;;;;;;5082031;28;19913;-83
2022/11/03 13:05:15;;;;;;;;;;;15.90;99.90;;;;;;5085874;28;19908;-84
2022/11/03 13:07:42;;;;;;;;;;;15.90;99.90;;;;;;5087351;28;19908;-84
2022/11/03 13:10:08;;;;;;;;;;;15.90;99.90;;;;;;5085234;28;19916;-84
2022/11/03 13:12:35;;;;;;;;;;;15.90;99.90;;;;;;5068145;28;19987;-84
2022/11/03 13:15:03;;;;;;;;;;;15.80;99.90;;;;;;5084792;28;19909;-84
2022/11/03 13:17:29;;;;;;;;;;;15.70;99.90;;;;;;5067790;28;19921;-84
2022/11/03 13:19:55;;;;;;;;;;;15.60;99.90;;;;;;5084557;28;19915;-83
2022/11/03 13:22:21;;;;;;;;;;;15.50;99.90;;;;;;5085194;28;19945;-83
2022/11/03 13:24:46;;;;;;;;;;;15.40;99.90;;;;;;5084780;28;19908;-83
2022/11/03 13:27:12;;;;;;;;;;;15.30;99.90;;;;;;5084560;28;20186;-83
2022/11/03 13:29:38;;;;;;;;;;;15.30;99.90;;;;;;5085653;28;19915;-83
2022/11/03 13:32:04;;;;;;;;;;;15.20;99.90;;;;;;5068027;28;19915;-83
2022/11/03 13:34:29;;;;;;;;;;;15.20;99.90;;;;;;5067967;28;20173;-83
2022/11/03 13:36:55;;;;;;;;;;;15.10;99.90;;;;;;5067240;28;19932;-84
2022/11/03 13:39:21;;;;;;;;;;;15.10;99.90;;;;;;5084230;28;19987;-83
2022/11/03 13:41:46;;;;;;;;;;;15.10;99.90;;;;;;5085527;28;20207;-83
2022/11/03 13:44:12;;;;;;;;;;;15.10;99.90;;;;;;5084342;28;19943;-82
2022/11/03 13:46:38;;;;;;;;;;;15.10;99.90;;;;;;5085251;28;19931;-84
2022/11/03 13:49:03;;;;;;;;;;;15.10;99.90;;;;;;5067664;28;19916;-83
2022/11/03 13:51:29;;;;;;;;;;;15.10;99.90;;;;;;5084761;28;19916;-83
2022/11/03 13:53:55;;;;;;;;;;;15.00;99.90;;;;;;5087270;28;20195;-82
2022/11/03 13:56:20;;;;;;;;;;;14.90;99.90;;;;;;5088927;28;19913;-81
2022/11/03 13:58:47;;;;;;;;;;;14.80;99.90;;;;;;5087628;28;20176;-82
2022/11/03 14:01:12;;;;;;;;;;;14.70;99.90;;;;;;5086209;28;20107;-82
2022/11/03 14:03:38;;;;;;;;;;;14.70;99.90;;;;;;5083775;28;19908;-74
2022/11/03 14:06:04;;;;;;;;;;;14.70;99.90;;;;;;5084139;28;19977;-74
2022/11/03 14:08:30;;;;;;;;;;;14.60;99.90;;;;;;5084346;28;19969;-74
2022/11/03 14:10:55;;;;;;;;;;;14.60;99.90;;;;;;5084520;28;19909;-74
2022/11/03 14:13:21;;;;;;;;;;;14.50;99.90;;;;;;5084546;28;19971;-74
2022/11/03 14:15:47;;;;;;;;;;;14.50;99.90;;;;;;5083200;28;19917;-74
2022/11/03 14:18:12;;;;;;;;;;;14.40;99.90;;;;;;5083969;28;19916;-74
2022/11/03 14:20:38;;;;;;;;;;;14.40;99.90;;;;;;5084014;28;19909;-74
2022/11/03 14:23:04;;;;;;;;;;;14.30;99.90;;;;;;5084237;28;19916;-74
2022/11/03 14:25:29;;;;;;;;;;;14.30;99.90;;;;;;5083163;28;19962;-74
2022/11/03 14:27:55;;;;;;;;;;;14.20;99.90;;;;;;5084007;28;19918;-79
2022/11/03 14:30:21;;;;;;;;;;;14.20;99.90;;;;;;5085571;28;19909;-77
2022/11/03 14:32:46;;;;;;;;;;;14.20;99.90;;;;;;5083627;28;19915;-78
2022/11/03 14:35:12;;;;;;;;;;;14.10;99.90;;;;;;5078611;28;19920;-79
2022/11/03 14:37:38;;;;;;;;;;;14.00;99.90;;;;;;5072732;28;19917;-78
2022/11/03 14:40:05;;;;;;;;;;;14.00;99.90;;;;;;5063746;28;19940;-78
2022/11/03 14:42:30;;;;;;;;;;;13.90;99.90;;;;;;5063718;28;19909;-79
2022/11/03 14:44:56;;;;;;;;;;;13.90;99.90;;;;;;5064300;28;19909;-78
2022/11/03 14:47:22;;;;;;;;;;;13.80;99.90;;;;;;5065856;28;19958;-79
2022/11/03 14:49:47;;;;;;;;;;;13.70;99.90;;;;;;5083616;28;19916;-80
2022/11/03 14:52:14;;;;;;;;;;;13.70;99.90;;;;;;5082722;28;19912;-79
2022/11/03 14:54:39;;;;;;;;;;;13.60;99.90;;;;;;5066947;28;20219;-79